sensor_id;sensor_type;location;lat;lon;timestamp;P1;durP1;ratioP1;P2;durP2;ratioP2
76357;SDS011;65185;21.060;105.826;2023-05-07T00:00:19;59.72;;;32.08;;
76357;SDS011;65185;21.060;105.826;2023-05-07T00:02:46;58.97;;;32.83;;
76357;SDS011;65185;21.060;105.826;2023-05-07T00:05:13;57.40;;;31.52;;
76357;SDS011;65185;21.060;105.826;2023-05-07T00:07:40;55.97;;;29.15;;
76357;SDS011;65185;21.060;105.826;2023-05-07T00:10:07;52.45;;;30.35;;
76357;SDS011;65185;21.060;105.826;2023-05-07T00:12:34;51.92;;;29.65;;
76357;SDS011;65185;21.060;105.826;2023-05-07T00:15:04;56.05;;;29.30;;
76357;SDS011;65185;21.060;105.826;2023-05-07T00:17:32;49.95;;;28.30;;
76357;SDS011;65185;21.060;105.826;2023-05-07T00:19:59;50.65;;;27.13;;
76357;SDS011;65185;21.060;105.826;2023-05-07T00:22:26;56.55;;;29.55;;
76357;SDS011;65185;21.060;105.826;2023-05-07T00:24:53;52.38;;;28.38;;
76357;SDS011;65185;21.060;105.826;2023-05-07T00:27:20;54.00;;;29.05;;
76357;SDS011;65185;21.060;105.826;2023-05-07T00:29:47;59.65;;;28.65;;
76357;SDS011;65185;21.060;105.826;2023-05-07T00:32:14;61.08;;;29.95;;
76357;SDS011;65185;21.060;105.826;2023-05-07T00:34:42;52.45;;;27.88;;
76357;SDS011;65185;21.060;105.826;2023-05-07T00:37:09;52.67;;;29.05;;
76357;SDS011;65185;21.060;105.826;2023-05-07T00:39:37;52.17;;;27.10;;
76357;SDS011;65185;21.060;105.826;2023-05-07T00:42:04;47.67;;;26.92;;
76357;SDS011;65185;21.060;105.826;2023-05-07T00:44:30;62.13;;;30.42;;
76357;SDS011;65185;21.060;105.826;2023-05-07T00:46:58;54.85;;;28.33;;
76357;SDS011;65185;21.060;105.826;2023-05-07T00:49:31;46.30;;;26.58;;
76357;SDS011;65185;21.060;105.826;2023-05-07T00:52:05;45.15;;;24.88;;
76357;SDS011;65185;21.060;105.826;2023-05-07T00:54:33;56.58;;;27.90;;
76357;SDS011;65185;21.060;105.826;2023-05-07T00:57:01;51.90;;;26.98;;
76357;SDS011;65185;21.060;105.826;2023-05-07T00:59:30;52.38;;;27.63;;
76357;SDS011;65185;21.060;105.826;2023-05-07T01:01:58;48.13;;;26.25;;
76357;SDS011;65185;21.060;105.826;2023-05-07T01:04:25;52.67;;;27.98;;
76357;SDS011;65185;21.060;105.826;2023-05-07T01:06:53;50.65;;;27.63;;
76357;SDS011;65185;21.060;105.826;2023-05-07T01:09:22;52.10;;;29.63;;
76357;SDS011;65185;21.060;105.826;2023-05-07T01:14:18;55.50;;;29.27;;
76357;SDS011;65185;21.060;105.826;2023-05-07T01:16:46;52.28;;;28.40;;
76357;SDS011;65185;21.060;105.826;2023-05-07T01:19:14;52.00;;;29.95;;
76357;SDS011;65185;21.060;105.826;2023-05-07T01:21:44;54.15;;;29.40;;
76357;SDS011;65185;21.060;105.826;2023-05-07T01:24:13;51.53;;;28.25;;
76357;SDS011;65185;21.060;105.826;2023-05-07T01:26:40;50.83;;;28.58;;
76357;SDS011;65185;21.060;105.826;2023-05-07T01:29:07;50.92;;;29.25;;
76357;SDS011;65185;21.060;105.826;2023-05-07T01:31:34;53.08;;;29.92;;
76357;SDS011;65185;21.060;105.826;2023-05-07T01:34:02;50.78;;;29.52;;
76357;SDS011;65185;21.060;105.826;2023-05-07T01:36:31;51.58;;;29.73;;
76357;SDS011;65185;21.060;105.826;2023-05-07T01:38:59;58.05;;;29.80;;
76357;SDS011;65185;21.060;105.826;2023-05-07T01:41:26;52.88;;;30.23;;
76357;SDS011;65185;21.060;105.826;2023-05-07T01:43:53;52.58;;;30.77;;
76357;SDS011;65185;21.060;105.826;2023-05-07T01:46:22;60.92;;;32.33;;
76357;SDS011;65185;21.060;105.826;2023-05-07T01:48:49;50.95;;;29.90;;
76357;SDS011;65185;21.060;105.826;2023-05-07T01:51:16;55.22;;;30.80;;
76357;SDS011;65185;21.060;105.826;2023-05-07T01:53:56;56.03;;;30.75;;
76357;SDS011;65185;21.060;105.826;2023-05-07T01:56:23;51.92;;;28.85;;
76357;SDS011;65185;21.060;105.826;2023-05-07T01:58:50;53.65;;;29.92;;
76357;SDS011;65185;21.060;105.826;2023-05-07T02:01:17;56.10;;;31.58;;
76357;SDS011;65185;21.060;105.826;2023-05-07T02:03:44;52.13;;;30.00;;
76357;SDS011;65185;21.060;105.826;2023-05-07T02:06:10;56.03;;;32.00;;
76357;SDS011;65185;21.060;105.826;2023-05-07T02:08:37;59.65;;;32.30;;
76357;SDS011;65185;21.060;105.826;2023-05-07T02:11:03;58.83;;;33.50;;
76357;SDS011;65185;21.060;105.826;2023-05-07T02:13:31;57.25;;;33.47;;
76357;SDS011;65185;21.060;105.826;2023-05-07T02:15:58;54.60;;;32.63;;
76357;SDS011;65185;21.060;105.826;2023-05-07T02:18:25;56.83;;;33.38;;
76357;SDS011;65185;21.060;105.826;2023-05-07T02:20:52;58.53;;;31.52;;
76357;SDS011;65185;21.060;105.826;2023-05-07T02:23:18;59.88;;;31.42;;
76357;SDS011;65185;21.060;105.826;2023-05-07T02:25:45;58.47;;;32.13;;
76357;SDS011;65185;21.060;105.826;2023-05-07T02:28:11;59.75;;;32.50;;
76357;SDS011;65185;21.060;105.826;2023-05-07T02:30:38;52.20;;;31.10;;
76357;SDS011;65185;21.060;105.826;2023-05-07T02:33:05;61.22;;;33.53;;
76357;SDS011;65185;21.060;105.826;2023-05-07T02:35:33;54.83;;;32.72;;
76357;SDS011;65185;21.060;105.826;2023-05-07T02:38:00;53.20;;;33.17;;
76357;SDS011;65185;21.060;105.826;2023-05-07T02:40:26;61.85;;;34.63;;
76357;SDS011;65185;21.060;105.826;2023-05-07T02:42:53;56.58;;;31.30;;
76357;SDS011;65185;21.060;105.826;2023-05-07T02:45:19;54.13;;;33.85;;
76357;SDS011;65185;21.060;105.826;2023-05-07T02:47:46;55.00;;;32.38;;
76357;SDS011;65185;21.060;105.826;2023-05-07T02:50:12;48.50;;;31.75;;
76357;SDS011;65185;21.060;105.826;2023-05-07T02:52:39;53.20;;;31.80;;
76357;SDS011;65185;21.060;105.826;2023-05-07T02:55:05;51.60;;;30.33;;
76357;SDS011;65185;21.060;105.826;2023-05-07T02:57:32;50.92;;;33.47;;
76357;SDS011;65185;21.060;105.826;2023-05-07T02:59:58;51.38;;;32.33;;
76357;SDS011;65185;21.060;105.826;2023-05-07T03:02:25;53.75;;;33.80;;
76357;SDS011;65185;21.060;105.826;2023-05-07T03:04:51;53.90;;;31.38;;
76357;SDS011;65185;21.060;105.826;2023-05-07T03:07:18;50.90;;;32.20;;
76357;SDS011;65185;21.060;105.826;2023-05-07T03:09:44;58.88;;;34.63;;
76357;SDS011;65185;21.060;105.826;2023-05-07T03:12:11;55.75;;;34.00;;
76357;SDS011;65185;21.060;105.826;2023-05-07T03:14:37;53.17;;;33.72;;
76357;SDS011;65185;21.060;105.826;2023-05-07T03:17:03;52.60;;;32.78;;
76357;SDS011;65185;21.060;105.826;2023-05-07T03:19:30;60.25;;;33.88;;
76357;SDS011;65185;21.060;105.826;2023-05-07T03:21:56;54.75;;;32.13;;
76357;SDS011;65185;21.060;105.826;2023-05-07T03:24:23;56.35;;;34.45;;
76357;SDS011;65185;21.060;105.826;2023-05-07T03:26:49;50.10;;;35.13;;
76357;SDS011;65185;21.060;105.826;2023-05-07T03:29:16;58.35;;;36.55;;
76357;SDS011;65185;21.060;105.826;2023-05-07T03:31:42;62.53;;;36.63;;
76357;SDS011;65185;21.060;105.826;2023-05-07T03:34:09;55.05;;;35.25;;
76357;SDS011;65185;21.060;105.826;2023-05-07T03:36:35;61.35;;;37.70;;
76357;SDS011;65185;21.060;105.826;2023-05-07T03:39:02;52.80;;;35.90;;
76357;SDS011;65185;21.060;105.826;2023-05-07T03:41:29;55.47;;;35.63;;
76357;SDS011;65185;21.060;105.826;2023-05-07T03:43:55;50.55;;;35.58;;
76357;SDS011;65185;21.060;105.826;2023-05-07T03:46:22;56.00;;;35.78;;
76357;SDS011;65185;21.060;105.826;2023-05-07T03:51:17;60.45;;;38.90;;
76357;SDS011;65185;21.060;105.826;2023-05-07T03:53:44;54.42;;;36.22;;
76357;SDS011;65185;21.060;105.826;2023-05-07T03:56:10;65.28;;;39.63;;
76357;SDS011;65185;21.060;105.826;2023-05-07T03:58:37;61.53;;;37.80;;
76357;SDS011;65185;21.060;105.826;2023-05-07T04:01:03;56.83;;;36.05;;
76357;SDS011;65185;21.060;105.826;2023-05-07T04:03:30;61.13;;;37.75;;
76357;SDS011;65185;21.060;105.826;2023-05-07T04:05:56;55.15;;;37.45;;
76357;SDS011;65185;21.060;105.826;2023-05-07T04:08:22;55.97;;;35.15;;
76357;SDS011;65185;21.060;105.826;2023-05-07T04:10:54;63.17;;;38.65;;
76357;SDS011;65185;21.060;105.826;2023-05-07T04:13:21;55.38;;;37.67;;
76357;SDS011;65185;21.060;105.826;2023-05-07T04:15:47;52.65;;;37.72;;
76357;SDS011;65185;21.060;105.826;2023-05-07T04:18:14;55.38;;;36.83;;
76357;SDS011;65185;21.060;105.826;2023-05-07T04:20:41;60.00;;;38.13;;
76357;SDS011;65185;21.060;105.826;2023-05-07T04:23:07;56.47;;;36.15;;
76357;SDS011;65185;21.060;105.826;2023-05-07T04:25:34;54.92;;;35.92;;
76357;SDS011;65185;21.060;105.826;2023-05-07T04:28:00;54.65;;;37.40;;
76357;SDS011;65185;21.060;105.826;2023-05-07T04:30:27;56.83;;;35.72;;
76357;SDS011;65185;21.060;105.826;2023-05-07T04:32:53;52.35;;;33.33;;
76357;SDS011;65185;21.060;105.826;2023-05-07T04:35:20;53.63;;;34.25;;
76357;SDS011;65185;21.060;105.826;2023-05-07T04:37:50;61.30;;;36.30;;
76357;SDS011;65185;21.060;105.826;2023-05-07T04:40:17;56.47;;;36.72;;
76357;SDS011;65185;21.060;105.826;2023-05-07T04:42:43;55.53;;;36.00;;
76357;SDS011;65185;21.060;105.826;2023-05-07T04:45:10;52.58;;;36.40;;
76357;SDS011;65185;21.060;105.826;2023-05-07T04:47:38;57.42;;;38.25;;
76357;SDS011;65185;21.060;105.826;2023-05-07T04:50:05;50.70;;;35.22;;
76357;SDS011;65185;21.060;105.826;2023-05-07T04:52:33;60.47;;;38.97;;
76357;SDS011;65185;21.060;105.826;2023-05-07T04:55:00;64.45;;;39.83;;
76357;SDS011;65185;21.060;105.826;2023-05-07T04:57:26;54.78;;;36.78;;
76357;SDS011;65185;21.060;105.826;2023-05-07T04:59:53;50.60;;;37.58;;
76357;SDS011;65185;21.060;105.826;2023-05-07T05:02:20;62.38;;;38.92;;
76357;SDS011;65185;21.060;105.826;2023-05-07T05:04:47;62.08;;;39.30;;
76357;SDS011;65185;21.060;105.826;2023-05-07T05:07:14;60.65;;;39.72;;
76357;SDS011;65185;21.060;105.826;2023-05-07T05:09:40;57.92;;;39.20;;
76357;SDS011;65185;21.060;105.826;2023-05-07T05:12:06;50.65;;;37.15;;
76357;SDS011;65185;21.060;105.826;2023-05-07T05:14:33;61.25;;;41.30;;
76357;SDS011;65185;21.060;105.826;2023-05-07T05:16:59;59.65;;;40.80;;
76357;SDS011;65185;21.060;105.826;2023-05-07T05:19:26;60.33;;;41.78;;
76357;SDS011;65185;21.060;105.826;2023-05-07T05:21:52;59.67;;;40.50;;
76357;SDS011;65185;21.060;105.826;2023-05-07T05:24:19;58.60;;;40.80;;
76357;SDS011;65185;21.060;105.826;2023-05-07T05:26:45;59.58;;;42.28;;
76357;SDS011;65185;21.060;105.826;2023-05-07T05:29:11;60.70;;;41.05;;
76357;SDS011;65185;21.060;105.826;2023-05-07T05:31:38;57.85;;;40.70;;
76357;SDS011;65185;21.060;105.826;2023-05-07T05:34:05;60.83;;;42.35;;
76357;SDS011;65185;21.060;105.826;2023-05-07T05:36:31;58.78;;;41.67;;
76357;SDS011;65185;21.060;105.826;2023-05-07T05:38:57;62.50;;;43.05;;
76357;SDS011;65185;21.060;105.826;2023-05-07T05:41:24;57.63;;;41.08;;
76357;SDS011;65185;21.060;105.826;2023-05-07T05:43:50;60.75;;;40.80;;
76357;SDS011;65185;21.060;105.826;2023-05-07T05:46:17;56.70;;;41.05;;
76357;SDS011;65185;21.060;105.826;2023-05-07T05:48:43;54.45;;;39.83;;
76357;SDS011;65185;21.060;105.826;2023-05-07T05:51:10;56.95;;;40.13;;
76357;SDS011;65185;21.060;105.826;2023-05-07T05:53:36;64.85;;;42.08;;
76357;SDS011;65185;21.060;105.826;2023-05-07T05:56:03;69.80;;;43.45;;
76357;SDS011;65185;21.060;105.826;2023-05-07T05:58:29;64.05;;;45.67;;
76357;SDS011;65185;21.060;105.826;2023-05-07T06:00:56;64.72;;;44.70;;
76357;SDS011;65185;21.060;105.826;2023-05-07T06:03:23;63.42;;;44.85;;
76357;SDS011;65185;21.060;105.826;2023-05-07T06:05:50;64.82;;;45.35;;
76357;SDS011;65185;21.060;105.826;2023-05-07T06:08:16;65.93;;;47.05;;
76357;SDS011;65185;21.060;105.826;2023-05-07T06:10:43;71.45;;;47.00;;
76357;SDS011;65185;21.060;105.826;2023-05-07T06:13:10;70.53;;;48.78;;
76357;SDS011;65185;21.060;105.826;2023-05-07T06:15:36;68.47;;;49.08;;
76357;SDS011;65185;21.060;105.826;2023-05-07T06:18:03;73.35;;;51.10;;
76357;SDS011;65185;21.060;105.826;2023-05-07T06:20:29;75.15;;;50.80;;
76357;SDS011;65185;21.060;105.826;2023-05-07T06:22:56;66.50;;;48.00;;
76357;SDS011;65185;21.060;105.826;2023-05-07T06:25:22;70.50;;;49.97;;
76357;SDS011;65185;21.060;105.826;2023-05-07T06:27:48;72.80;;;52.42;;
76357;SDS011;65185;21.060;105.826;2023-05-07T06:30:15;80.70;;;55.10;;
76357;SDS011;65185;21.060;105.826;2023-05-07T06:32:41;80.10;;;54.92;;
76357;SDS011;65185;21.060;105.826;2023-05-07T06:35:08;72.38;;;52.80;;
76357;SDS011;65185;21.060;105.826;2023-05-07T06:37:35;77.97;;;53.17;;
76357;SDS011;65185;21.060;105.826;2023-05-07T06:40:04;86.60;;;56.95;;
76357;SDS011;65185;21.060;105.826;2023-05-07T06:42:32;78.43;;;54.47;;
76357;SDS011;65185;21.060;105.826;2023-05-07T06:44:58;74.10;;;53.70;;
76357;SDS011;65185;21.060;105.826;2023-05-07T06:47:25;75.57;;;55.95;;
76357;SDS011;65185;21.060;105.826;2023-05-07T06:49:51;83.60;;;56.92;;
76357;SDS011;65185;21.060;105.826;2023-05-07T06:52:18;82.32;;;58.38;;
76357;SDS011;65185;21.060;105.826;2023-05-07T06:54:44;81.38;;;58.90;;
76357;SDS011;65185;21.060;105.826;2023-05-07T06:57:11;93.18;;;59.88;;
76357;SDS011;65185;21.060;105.826;2023-05-07T06:59:37;83.35;;;59.53;;
76357;SDS011;65185;21.060;105.826;2023-05-07T07:02:03;82.38;;;60.05;;
76357;SDS011;65185;21.060;105.826;2023-05-07T07:04:30;87.22;;;61.83;;
76357;SDS011;65185;21.060;105.826;2023-05-07T07:06:57;86.65;;;63.67;;
76357;SDS011;65185;21.060;105.826;2023-05-07T07:09:23;80.75;;;59.92;;
76357;SDS011;65185;21.060;105.826;2023-05-07T07:11:50;81.75;;;61.33;;
76357;SDS011;65185;21.060;105.826;2023-05-07T07:14:45;88.10;;;61.92;;
76357;SDS011;65185;21.060;105.826;2023-05-07T07:17:11;80.45;;;57.40;;
76357;SDS011;65185;21.060;105.826;2023-05-07T07:19:37;79.28;;;59.15;;
76357;SDS011;65185;21.060;105.826;2023-05-07T07:22:04;90.50;;;62.92;;
76357;SDS011;65185;21.060;105.826;2023-05-07T07:24:31;86.35;;;62.90;;
76357;SDS011;65185;21.060;105.826;2023-05-07T07:26:57;84.25;;;60.75;;
76357;SDS011;65185;21.060;105.826;2023-05-07T07:29:24;85.07;;;61.78;;
76357;SDS011;65185;21.060;105.826;2023-05-07T07:31:51;87.63;;;62.42;;
76357;SDS011;65185;21.060;105.826;2023-05-07T07:34:18;78.13;;;58.17;;
76357;SDS011;65185;21.060;105.826;2023-05-07T07:36:44;79.32;;;59.15;;
76357;SDS011;65185;21.060;105.826;2023-05-07T07:39:11;91.03;;;61.97;;
76357;SDS011;65185;21.060;105.826;2023-05-07T07:41:37;83.32;;;60.00;;
76357;SDS011;65185;21.060;105.826;2023-05-07T07:44:04;83.45;;;60.22;;
76357;SDS011;65185;21.060;105.826;2023-05-07T07:46:32;86.18;;;61.08;;
76357;SDS011;65185;21.060;105.826;2023-05-07T07:48:59;86.93;;;62.67;;
76357;SDS011;65185;21.060;105.826;2023-05-07T07:51:26;80.97;;;59.38;;
76357;SDS011;65185;21.060;105.826;2023-05-07T07:53:52;84.40;;;61.15;;
76357;SDS011;65185;21.060;105.826;2023-05-07T07:56:19;88.55;;;64.20;;
76357;SDS011;65185;21.060;105.826;2023-05-07T07:58:45;84.85;;;59.83;;
76357;SDS011;65185;21.060;105.826;2023-05-07T08:01:12;80.35;;;58.40;;
76357;SDS011;65185;21.060;105.826;2023-05-07T08:03:38;83.35;;;59.67;;
76357;SDS011;65185;21.060;105.826;2023-05-07T08:06:05;82.30;;;60.22;;
76357;SDS011;65185;21.060;105.826;2023-05-07T08:08:31;83.75;;;59.67;;
76357;SDS011;65185;21.060;105.826;2023-05-07T08:11:03;82.22;;;60.63;;
76357;SDS011;65185;21.060;105.826;2023-05-07T08:13:30;80.55;;;60.05;;
76357;SDS011;65185;21.060;105.826;2023-05-07T08:15:57;82.20;;;58.05;;
76357;SDS011;65185;21.060;105.826;2023-05-07T08:18:24;77.55;;;59.15;;
76357;SDS011;65185;21.060;105.826;2023-05-07T08:20:53;78.88;;;59.10;;
76357;SDS011;65185;21.060;105.826;2023-05-07T08:23:20;77.53;;;58.25;;
76357;SDS011;65185;21.060;105.826;2023-05-07T08:25:48;80.97;;;58.60;;
76357;SDS011;65185;21.060;105.826;2023-05-07T08:28:15;85.85;;;63.85;;
76357;SDS011;65185;21.060;105.826;2023-05-07T08:30:41;85.10;;;60.10;;
76357;SDS011;65185;21.060;105.826;2023-05-07T08:33:08;86.20;;;63.45;;
76357;SDS011;65185;21.060;105.826;2023-05-07T08:35:35;85.40;;;62.58;;
76357;SDS011;65185;21.060;105.826;2023-05-07T08:38:01;85.40;;;61.83;;
76357;SDS011;65185;21.060;105.826;2023-05-07T08:40:28;86.88;;;63.53;;
76357;SDS011;65185;21.060;105.826;2023-05-07T08:42:54;85.32;;;61.35;;
76357;SDS011;65185;21.060;105.826;2023-05-07T08:45:22;90.30;;;66.60;;
76357;SDS011;65185;21.060;105.826;2023-05-07T08:47:51;90.55;;;65.47;;
76357;SDS011;65185;21.060;105.826;2023-05-07T08:50:21;88.35;;;66.28;;
76357;SDS011;65185;21.060;105.826;2023-05-07T08:52:48;96.32;;;69.22;;
76357;SDS011;65185;21.060;105.826;2023-05-07T08:55:14;98.88;;;70.25;;
76357;SDS011;65185;21.060;105.826;2023-05-07T08:57:41;88.20;;;67.93;;
76357;SDS011;65185;21.060;105.826;2023-05-07T09:00:08;93.10;;;67.03;;
76357;SDS011;65185;21.060;105.826;2023-05-07T09:02:35;102.90;;;69.80;;
76357;SDS011;65185;21.060;105.826;2023-05-07T09:05:02;93.13;;;67.10;;
76357;SDS011;65185;21.060;105.826;2023-05-07T09:07:29;87.95;;;65.65;;
76357;SDS011;65185;21.060;105.826;2023-05-07T09:09:56;91.90;;;66.80;;
76357;SDS011;65185;21.060;105.826;2023-05-07T09:12:23;85.25;;;63.80;;
76357;SDS011;65185;21.060;105.826;2023-05-07T09:14:49;89.05;;;65.93;;
76357;SDS011;65185;21.060;105.826;2023-05-07T09:17:16;93.70;;;67.22;;
76357;SDS011;65185;21.060;105.826;2023-05-07T09:19:45;94.22;;;67.97;;
76357;SDS011;65185;21.060;105.826;2023-05-07T09:22:12;97.05;;;68.90;;
76357;SDS011;65185;21.060;105.826;2023-05-07T09:24:38;96.45;;;69.68;;
76357;SDS011;65185;21.060;105.826;2023-05-07T09:27:05;92.30;;;68.25;;
76357;SDS011;65185;21.060;105.826;2023-05-07T09:29:35;99.32;;;71.75;;
76357;SDS011;65185;21.060;105.826;2023-05-07T09:32:03;96.25;;;71.20;;
76357;SDS011;65185;21.060;105.826;2023-05-07T09:34:33;99.45;;;70.65;;
76357;SDS011;65185;21.060;105.826;2023-05-07T09:37:01;100.15;;;67.93;;
76357;SDS011;65185;21.060;105.826;2023-05-07T09:39:45;102.20;;;71.72;;
76357;SDS011;65185;21.060;105.826;2023-05-07T09:42:12;102.50;;;70.22;;
76357;SDS011;65185;21.060;105.826;2023-05-07T09:44:45;99.22;;;68.95;;
76357;SDS011;65185;21.060;105.826;2023-05-07T09:47:14;98.63;;;71.55;;
76357;SDS011;65185;21.060;105.826;2023-05-07T09:49:46;95.47;;;69.80;;
76357;SDS011;65185;21.060;105.826;2023-05-07T09:52:14;85.35;;;58.95;;
76357;SDS011;65185;21.060;105.826;2023-05-07T09:54:41;82.10;;;55.65;;
76357;SDS011;65185;21.060;105.826;2023-05-07T09:57:11;79.93;;;52.20;;
76357;SDS011;65185;21.060;105.826;2023-05-07T09:59:39;76.88;;;51.38;;
76357;SDS011;65185;21.060;105.826;2023-05-07T10:02:09;77.50;;;47.38;;
76357;SDS011;65185;21.060;105.826;2023-05-07T10:04:36;77.75;;;47.80;;
76357;SDS011;65185;21.060;105.826;2023-05-07T10:07:04;71.28;;;44.47;;
76357;SDS011;65185;21.060;105.826;2023-05-07T10:09:31;65.65;;;41.63;;
76357;SDS011;65185;21.060;105.826;2023-05-07T10:11:58;61.38;;;39.33;;
76357;SDS011;65185;21.060;105.826;2023-05-07T10:14:25;63.28;;;37.88;;
76357;SDS011;65185;21.060;105.826;2023-05-07T10:16:54;56.40;;;35.85;;
76357;SDS011;65185;21.060;105.826;2023-05-07T10:19:22;56.47;;;35.15;;
76357;SDS011;65185;21.060;105.826;2023-05-07T10:21:58;68.18;;;41.17;;
76357;SDS011;65185;21.060;105.826;2023-05-07T10:24:32;64.65;;;38.92;;
76357;SDS011;65185;21.060;105.826;2023-05-07T10:27:00;64.30;;;35.60;;
76357;SDS011;65185;21.060;105.826;2023-05-07T10:29:45;58.45;;;33.25;;
76357;SDS011;65185;21.060;105.826;2023-05-07T10:32:30;49.83;;;32.17;;
76357;SDS011;65185;21.060;105.826;2023-05-07T10:34:58;54.45;;;32.10;;
76357;SDS011;65185;21.060;105.826;2023-05-07T10:37:28;57.03;;;32.65;;
76357;SDS011;65185;21.060;105.826;2023-05-07T10:39:55;61.03;;;33.70;;
76357;SDS011;65185;21.060;105.826;2023-05-07T10:42:22;51.65;;;30.60;;
76357;SDS011;65185;21.060;105.826;2023-05-07T10:44:49;59.67;;;31.50;;
76357;SDS011;65185;21.060;105.826;2023-05-07T10:47:16;55.75;;;30.05;;
76357;SDS011;65185;21.060;105.826;2023-05-07T10:54:44;57.97;;;31.38;;
76357;SDS011;65185;21.060;105.826;2023-05-07T11:05:28;56.88;;;32.10;;
76357;SDS011;65185;21.060;105.826;2023-05-07T11:07:56;57.20;;;31.98;;
76357;SDS011;65185;21.060;105.826;2023-05-07T11:10:46;53.42;;;29.65;;
76357;SDS011;65185;21.060;105.826;2023-05-07T11:13:17;56.15;;;32.03;;
76357;SDS011;65185;21.060;105.826;2023-05-07T11:16:04;58.38;;;31.75;;
76357;SDS011;65185;21.060;105.826;2023-05-07T11:18:48;56.03;;;31.30;;
76357;SDS011;65185;21.060;105.826;2023-05-07T11:21:32;57.75;;;30.15;;
76357;SDS011;65185;21.060;105.826;2023-05-07T11:24:04;61.50;;;30.65;;
76357;SDS011;65185;21.060;105.826;2023-05-07T11:26:42;55.55;;;32.90;;
76357;SDS011;65185;21.060;105.826;2023-05-07T11:29:13;55.33;;;31.73;;
76357;SDS011;65185;21.060;105.826;2023-05-07T11:31:41;60.97;;;32.05;;
76357;SDS011;65185;21.060;105.826;2023-05-07T11:34:08;59.10;;;32.15;;
76357;SDS011;65185;21.060;105.826;2023-05-07T11:36:35;56.72;;;31.30;;
76357;SDS011;65185;21.060;105.826;2023-05-07T11:39:22;58.92;;;30.52;;
76357;SDS011;65185;21.060;105.826;2023-05-07T11:41:53;58.42;;;31.77;;
76357;SDS011;65185;21.060;105.826;2023-05-07T11:44:19;63.90;;;34.38;;
76357;SDS011;65185;21.060;105.826;2023-05-07T11:46:46;58.47;;;34.97;;
76357;SDS011;65185;21.060;105.826;2023-05-07T11:49:12;61.13;;;34.60;;
76357;SDS011;65185;21.060;105.826;2023-05-07T11:51:39;64.10;;;33.72;;
76357;SDS011;65185;21.060;105.826;2023-05-07T11:54:08;56.03;;;30.73;;
76357;SDS011;65185;21.060;105.826;2023-05-07T11:56:36;59.17;;;32.63;;
76357;SDS011;65185;21.060;105.826;2023-05-07T11:59:04;63.10;;;33.03;;
76357;SDS011;65185;21.060;105.826;2023-05-07T12:01:31;61.80;;;34.35;;
76357;SDS011;65185;21.060;105.826;2023-05-07T12:03:58;56.53;;;33.22;;
76357;SDS011;65185;21.060;105.826;2023-05-07T12:06:24;57.00;;;33.22;;
76357;SDS011;65185;21.060;105.826;2023-05-07T12:08:51;64.38;;;34.65;;
76357;SDS011;65185;21.060;105.826;2023-05-07T12:11:22;57.67;;;32.65;;
76357;SDS011;65185;21.060;105.826;2023-05-07T12:13:50;59.63;;;32.55;;
76357;SDS011;65185;21.060;105.826;2023-05-07T12:16:17;62.90;;;34.25;;
76357;SDS011;65185;21.060;105.826;2023-05-07T12:18:44;57.83;;;34.00;;
76357;SDS011;65185;21.060;105.826;2023-05-07T12:21:12;57.53;;;33.85;;
76357;SDS011;65185;21.060;105.826;2023-05-07T12:23:39;60.47;;;34.30;;
76357;SDS011;65185;21.060;105.826;2023-05-07T12:26:06;59.58;;;33.65;;
76357;SDS011;65185;21.060;105.826;2023-05-07T12:28:35;61.53;;;35.28;;
76357;SDS011;65185;21.060;105.826;2023-05-07T12:31:04;51.97;;;32.72;;
76357;SDS011;65185;21.060;105.826;2023-05-07T12:33:31;63.28;;;33.45;;
76357;SDS011;65185;21.060;105.826;2023-05-07T12:35:58;55.40;;;31.17;;
76357;SDS011;65185;21.060;105.826;2023-05-07T12:38:33;54.05;;;31.38;;
76357;SDS011;65185;21.060;105.826;2023-05-07T12:41:04;55.33;;;30.27;;
76357;SDS011;65185;21.060;105.826;2023-05-07T12:43:32;48.95;;;30.13;;
76357;SDS011;65185;21.060;105.826;2023-05-07T12:46:00;54.17;;;29.55;;
76357;SDS011;65185;21.060;105.826;2023-05-07T12:48:33;53.05;;;29.40;;
76357;SDS011;65185;21.060;105.826;2023-05-07T12:51:01;47.67;;;29.05;;
76357;SDS011;65185;21.060;105.826;2023-05-07T12:53:28;50.58;;;29.17;;
76357;SDS011;65185;21.060;105.826;2023-05-07T12:55:57;47.58;;;27.35;;
76357;SDS011;65185;21.060;105.826;2023-05-07T12:58:29;48.05;;;28.85;;
76357;SDS011;65185;21.060;105.826;2023-05-07T13:00:59;43.80;;;26.88;;
76357;SDS011;65185;21.060;105.826;2023-05-07T13:03:28;50.28;;;29.40;;
76357;SDS011;65185;21.060;105.826;2023-05-07T13:05:57;53.60;;;29.98;;
76357;SDS011;65185;21.060;105.826;2023-05-07T13:08:29;54.22;;;30.77;;
76357;SDS011;65185;21.060;105.826;2023-05-07T13:11:00;51.00;;;33.22;;
76357;SDS011;65185;21.060;105.826;2023-05-07T13:13:31;61.92;;;34.67;;
76357;SDS011;65185;21.060;105.826;2023-05-07T13:15:58;59.40;;;33.55;;
76357;SDS011;65185;21.060;105.826;2023-05-07T13:18:25;56.40;;;31.60;;
76357;SDS011;65185;21.060;105.826;2023-05-07T13:20:55;54.08;;;32.30;;
76357;SDS011;65185;21.060;105.826;2023-05-07T13:23:22;57.05;;;31.70;;
76357;SDS011;65185;21.060;105.826;2023-05-07T13:25:49;52.08;;;30.77;;
76357;SDS011;65185;21.060;105.826;2023-05-07T13:28:17;55.47;;;32.72;;
76357;SDS011;65185;21.060;105.826;2023-05-07T13:30:44;54.25;;;31.27;;
76357;SDS011;65185;21.060;105.826;2023-05-07T13:33:10;58.30;;;33.80;;
76357;SDS011;65185;21.060;105.826;2023-05-07T13:35:37;59.38;;;32.35;;
76357;SDS011;65185;21.060;105.826;2023-05-07T13:38:04;57.40;;;31.63;;
76357;SDS011;65185;21.060;105.826;2023-05-07T13:40:30;55.78;;;32.15;;
76357;SDS011;65185;21.060;105.826;2023-05-07T13:42:57;58.90;;;31.85;;
76357;SDS011;65185;21.060;105.826;2023-05-07T13:45:27;46.60;;;25.55;;
76357;SDS011;65185;21.060;105.826;2023-05-07T13:47:56;36.15;;;17.40;;
76357;SDS011;65185;21.060;105.826;2023-05-07T13:50:23;24.73;;;14.40;;
76357;SDS011;65185;21.060;105.826;2023-05-07T13:52:52;26.40;;;12.10;;
76357;SDS011;65185;21.060;105.826;2023-05-07T13:55:18;20.67;;;9.45;;
76357;SDS011;65185;21.060;105.826;2023-05-07T13:57:46;19.70;;;8.88;;
76357;SDS011;65185;21.060;105.826;2023-05-07T14:00:13;19.73;;;9.32;;
76357;SDS011;65185;21.060;105.826;2023-05-07T14:02:41;17.25;;;8.90;;
76357;SDS011;65185;21.060;105.826;2023-05-07T14:05:08;14.27;;;8.32;;
76357;SDS011;65185;21.060;105.826;2023-05-07T14:07:35;15.85;;;8.15;;
76357;SDS011;65185;21.060;105.826;2023-05-07T14:10:02;14.23;;;9.13;;
76357;SDS011;65185;21.060;105.826;2023-05-07T14:12:29;14.75;;;9.10;;
76357;SDS011;65185;21.060;105.826;2023-05-07T14:14:55;15.05;;;10.15;;
76357;SDS011;65185;21.060;105.826;2023-05-07T14:17:22;17.15;;;10.75;;